<?xml version="1.0" encoding="UTF-8" standalone="no" ?>
<gpx xmlns="http://www.topografix.com/GPX/1/1" xmlns:xsi="http://www.w3.org/2001/XMLSchema-instance" xsi:schemaLocation="http://www.topografix.com/GPX/1/1 http://www.topografix.com/GPX/1/1/gpx.xsd" version="1.1" creator="VisuGPX - https://www.visugpx.com">
  <metadata>
    <name>rando St Chéron-Lardy (91) 21 km</name>
    <desc><![CDATA[Jolie rando  de 21 km dans l'Essonne. Départ de la gare de Saint-Chéron jusqu'à celle de Lardy . Passage par la Vallée de la Renarde. Niveau moyen.
A retrouver  aussi sur : 
[url]http://trekkingzone.wordpress.com[/url]]]></desc>
  </metadata>
  <trk>
    <name><![CDATA[23 juil. 2017 à 09:27:50]]></name>
    <cmt><![CDATA[23 juil. 2017 à 09:27:50]]></cmt>
    <trkseg>
      <trkpt lat="48.55106" lon="2.12572">
        <ele>73</ele>
        <time>2017-07-23T07:28:19Z</time>
      </trkpt>
      <trkpt lat="48.55102" lon="2.12611">
        <ele>73</ele>
        <time>2017-07-23T07:30:42Z</time>
      </trkpt>
      <trkpt lat="48.55108" lon="2.12645">
        <ele>73</ele>
        <time>2017-07-23T07:31:15Z</time>
      </trkpt>
      <trkpt lat="48.55125" lon="2.1271">
        <ele>73</ele>
        <time>2017-07-23T07:31:56Z</time>
      </trkpt>
      <trkpt lat="48.55139" lon="2.12779">
        <ele>73</ele>
        <time>2017-07-23T07:32:30Z</time>
      </trkpt>
      <trkpt lat="48.55144" lon="2.12813">
        <ele>72</ele>
        <time>2017-07-23T07:32:48Z</time>
      </trkpt>
      <trkpt lat="48.55131" lon="2.12841">
        <ele>71</ele>
        <time>2017-07-23T07:33:07Z</time>
      </trkpt>
      <trkpt lat="48.5509" lon="2.12876">
        <ele>69</ele>
        <time>2017-07-23T07:33:48Z</time>
      </trkpt>
      <trkpt lat="48.5505" lon="2.12913">
        <ele>67</ele>
        <time>2017-07-23T07:34:22Z</time>
      </trkpt>
      <trkpt lat="48.5501" lon="2.12949">
        <ele>67</ele>
        <time>2017-07-23T07:35:01Z</time>
      </trkpt>
      <trkpt lat="48.54973" lon="2.1299">
        <ele>67</ele>
        <time>2017-07-23T07:35:32Z</time>
      </trkpt>
      <trkpt lat="48.54956" lon="2.13012">
        <ele>67</ele>
        <time>2017-07-23T07:35:53Z</time>
      </trkpt>
      <trkpt lat="48.54933" lon="2.13074">
        <ele>67</ele>
        <time>2017-07-23T07:36:37Z</time>
      </trkpt>
      <trkpt lat="48.54917" lon="2.13098">
        <ele>68</ele>
        <time>2017-07-23T07:36:54Z</time>
      </trkpt>
      <trkpt lat="48.54875" lon="2.13129">
        <ele>68</ele>
        <time>2017-07-23T07:37:35Z</time>
      </trkpt>
      <trkpt lat="48.54829" lon="2.13136">
        <ele>70</ele>
        <time>2017-07-23T07:38:11Z</time>
      </trkpt>
      <trkpt lat="48.54785" lon="2.13153">
        <ele>73</ele>
        <time>2017-07-23T07:38:47Z</time>
      </trkpt>
      <trkpt lat="48.54765" lon="2.13173">
        <ele>75</ele>
        <time>2017-07-23T07:39:10Z</time>
      </trkpt>
      <trkpt lat="48.54768" lon="2.13243">
        <ele>77</ele>
        <time>2017-07-23T07:39:46Z</time>
      </trkpt>
      <trkpt lat="48.54783" lon="2.13311">
        <ele>80</ele>
        <time>2017-07-23T07:40:25Z</time>
      </trkpt>
      <trkpt lat="48.54792" lon="2.13343">
        <ele>81</ele>
        <time>2017-07-23T07:40:41Z</time>
      </trkpt>
      <trkpt lat="48.54799" lon="2.1341">
        <ele>81</ele>
        <time>2017-07-23T07:41:17Z</time>
      </trkpt>
      <trkpt lat="48.5481" lon="2.13479">
        <ele>81</ele>
        <time>2017-07-23T07:41:55Z</time>
      </trkpt>
      <trkpt lat="48.54822" lon="2.13546">
        <ele>81</ele>
        <time>2017-07-23T07:42:32Z</time>
      </trkpt>
      <trkpt lat="48.54845" lon="2.13605">
        <ele>82</ele>
        <time>2017-07-23T07:43:11Z</time>
      </trkpt>
      <trkpt lat="48.54869" lon="2.13664">
        <ele>82</ele>
        <time>2017-07-23T07:43:42Z</time>
      </trkpt>
      <trkpt lat="48.54876" lon="2.13697">
        <ele>82</ele>
        <time>2017-07-23T07:43:59Z</time>
      </trkpt>
      <trkpt lat="48.54876" lon="2.13733">
        <ele>82</ele>
        <time>2017-07-23T07:44:18Z</time>
      </trkpt>
      <trkpt lat="48.54887" lon="2.13764">
        <ele>83</ele>
        <time>2017-07-23T07:44:34Z</time>
      </trkpt>
      <trkpt lat="48.54899" lon="2.13833">
        <ele>83</ele>
        <time>2017-07-23T07:45:15Z</time>
      </trkpt>
      <trkpt lat="48.54908" lon="2.13878">
        <ele>83</ele>
        <time>2017-07-23T07:45:54Z</time>
      </trkpt>
      <trkpt lat="48.54904" lon="2.13912">
        <ele>86</ele>
        <time>2017-07-23T07:52:38Z</time>
      </trkpt>
      <trkpt lat="48.54907" lon="2.13947">
        <ele>88</ele>
        <time>2017-07-23T07:53:06Z</time>
      </trkpt>
      <trkpt lat="48.54921" lon="2.13976">
        <ele>89</ele>
        <time>2017-07-23T07:53:30Z</time>
      </trkpt>
      <trkpt lat="48.54928" lon="2.14009">
        <ele>90</ele>
        <time>2017-07-23T07:53:50Z</time>
      </trkpt>
      <trkpt lat="48.54932" lon="2.14078">
        <ele>91</ele>
        <time>2017-07-23T07:54:28Z</time>
      </trkpt>
      <trkpt lat="48.54928" lon="2.14146">
        <ele>92</ele>
        <time>2017-07-23T07:55:05Z</time>
      </trkpt>
      <trkpt lat="48.5493" lon="2.14217">
        <ele>92</ele>
        <time>2017-07-23T07:55:40Z</time>
      </trkpt>
      <trkpt lat="48.54938" lon="2.1425">
        <ele>92</ele>
        <time>2017-07-23T07:55:59Z</time>
      </trkpt>
      <trkpt lat="48.54941" lon="2.14285">
        <ele>92</ele>
        <time>2017-07-23T07:56:17Z</time>
      </trkpt>
      <trkpt lat="48.54938" lon="2.14354">
        <ele>93</ele>
        <time>2017-07-23T07:56:57Z</time>
      </trkpt>
      <trkpt lat="48.54945" lon="2.14422">
        <ele>94</ele>
        <time>2017-07-23T07:57:35Z</time>
      </trkpt>
      <trkpt lat="48.54942" lon="2.14492">
        <ele>94</ele>
        <time>2017-07-23T07:58:13Z</time>
      </trkpt>
      <trkpt lat="48.54946" lon="2.14525">
        <ele>95</ele>
        <time>2017-07-23T07:58:32Z</time>
      </trkpt>
      <trkpt lat="48.5494" lon="2.14595">
        <ele>96</ele>
        <time>2017-07-23T07:59:10Z</time>
      </trkpt>
      <trkpt lat="48.54937" lon="2.14664">
        <ele>95</ele>
        <time>2017-07-23T07:59:45Z</time>
      </trkpt>
      <trkpt lat="48.54927" lon="2.14731">
        <ele>94</ele>
        <time>2017-07-23T08:00:20Z</time>
      </trkpt>
      <trkpt lat="48.54928" lon="2.14801">
        <ele>93</ele>
        <time>2017-07-23T08:01:00Z</time>
      </trkpt>
      <trkpt lat="48.54925" lon="2.14836">
        <ele>92</ele>
        <time>2017-07-23T08:01:34Z</time>
      </trkpt>
      <trkpt lat="48.54929" lon="2.14906">
        <ele>92</ele>
        <time>2017-07-23T08:02:11Z</time>
      </trkpt>
      <trkpt lat="48.5493" lon="2.1494">
        <ele>92</ele>
        <time>2017-07-23T08:02:31Z</time>
      </trkpt>
      <trkpt lat="48.54919" lon="2.15009">
        <ele>93</ele>
        <time>2017-07-23T08:03:14Z</time>
      </trkpt>
      <trkpt lat="48.54917" lon="2.1508">
        <ele>93</ele>
        <time>2017-07-23T08:03:53Z</time>
      </trkpt>
      <trkpt lat="48.5492" lon="2.1515">
        <ele>95</ele>
        <time>2017-07-23T08:04:30Z</time>
      </trkpt>
      <trkpt lat="48.54916" lon="2.15184">
        <ele>95</ele>
        <time>2017-07-23T08:04:52Z</time>
      </trkpt>
      <trkpt lat="48.54919" lon="2.15218">
        <ele>96</ele>
        <time>2017-07-23T08:05:08Z</time>
      </trkpt>
      <trkpt lat="48.54915" lon="2.15286">
        <ele>96</ele>
        <time>2017-07-23T08:05:46Z</time>
      </trkpt>
      <trkpt lat="48.54912" lon="2.15355">
        <ele>98</ele>
        <time>2017-07-23T08:06:36Z</time>
      </trkpt>
      <trkpt lat="48.54899" lon="2.15384">
        <ele>100</ele>
        <time>2017-07-23T08:07:00Z</time>
      </trkpt>
      <trkpt lat="48.54892" lon="2.15416">
        <ele>101</ele>
        <time>2017-07-23T08:07:21Z</time>
      </trkpt>
      <trkpt lat="48.54878" lon="2.15444">
        <ele>103</ele>
        <time>2017-07-23T08:07:42Z</time>
      </trkpt>
      <trkpt lat="48.54871" lon="2.15477">
        <ele>110</ele>
        <time>2017-07-23T08:08:51Z</time>
      </trkpt>
      <trkpt lat="48.54868" lon="2.15512">
        <ele>109</ele>
        <time>2017-07-23T08:09:07Z</time>
      </trkpt>
      <trkpt lat="48.54865" lon="2.15546">
        <ele>109</ele>
        <time>2017-07-23T08:09:22Z</time>
      </trkpt>
      <trkpt lat="48.54856" lon="2.15578">
        <ele>108</ele>
        <time>2017-07-23T08:09:37Z</time>
      </trkpt>
      <trkpt lat="48.54854" lon="2.15613">
        <ele>108</ele>
        <time>2017-07-23T08:09:54Z</time>
      </trkpt>
      <trkpt lat="48.54838" lon="2.15679">
        <ele>108</ele>
        <time>2017-07-23T08:10:31Z</time>
      </trkpt>
      <trkpt lat="48.54823" lon="2.15745">
        <ele>110</ele>
        <time>2017-07-23T08:11:04Z</time>
      </trkpt>
      <trkpt lat="48.54812" lon="2.15814">
        <ele>112</ele>
        <time>2017-07-23T08:11:38Z</time>
      </trkpt>
      <trkpt lat="48.54808" lon="2.15848">
        <ele>113</ele>
        <time>2017-07-23T08:11:54Z</time>
      </trkpt>
      <trkpt lat="48.54784" lon="2.15906">
        <ele>111</ele>
        <time>2017-07-23T08:12:30Z</time>
      </trkpt>
      <trkpt lat="48.54763" lon="2.15967">
        <ele>109</ele>
        <time>2017-07-23T08:13:03Z</time>
      </trkpt>
      <trkpt lat="48.54753" lon="2.15998">
        <ele>108</ele>
        <time>2017-07-23T08:13:34Z</time>
      </trkpt>
      <trkpt lat="48.54737" lon="2.16065">
        <ele>106</ele>
        <time>2017-07-23T08:14:16Z</time>
      </trkpt>
      <trkpt lat="48.54716" lon="2.16126">
        <ele>104</ele>
        <time>2017-07-23T08:14:54Z</time>
      </trkpt>
      <trkpt lat="48.54694" lon="2.16187">
        <ele>102</ele>
        <time>2017-07-23T08:15:28Z</time>
      </trkpt>
      <trkpt lat="48.54689" lon="2.1622">
        <ele>101</ele>
        <time>2017-07-23T08:15:47Z</time>
      </trkpt>
      <trkpt lat="48.54651" lon="2.16307">
        <ele>98</ele>
        <time>2017-07-23T08:16:30Z</time>
      </trkpt>
      <trkpt lat="48.54637" lon="2.16336">
        <ele>98</ele>
        <time>2017-07-23T08:17:19Z</time>
      </trkpt>
      <trkpt lat="48.54626" lon="2.16366">
        <ele>97</ele>
        <time>2017-07-23T08:17:36Z</time>
      </trkpt>
      <trkpt lat="48.54621" lon="2.16401">
        <ele>96</ele>
        <time>2017-07-23T08:17:55Z</time>
      </trkpt>
      <trkpt lat="48.5463" lon="2.16433">
        <ele>95</ele>
        <time>2017-07-23T08:18:13Z</time>
      </trkpt>
      <trkpt lat="48.54634" lon="2.16441">
        <ele>94</ele>
        <time>2017-07-23T08:18:23Z</time>
      </trkpt>
      <trkpt lat="48.54648" lon="2.16469">
        <ele>93</ele>
        <time>2017-07-23T08:18:55Z</time>
      </trkpt>
      <trkpt lat="48.54689" lon="2.165">
        <ele>91</ele>
        <time>2017-07-23T08:19:30Z</time>
      </trkpt>
      <trkpt lat="48.54711" lon="2.16516">
        <ele>91</ele>
        <time>2017-07-23T08:19:46Z</time>
      </trkpt>
      <trkpt lat="48.54751" lon="2.16547">
        <ele>90</ele>
        <time>2017-07-23T08:20:27Z</time>
      </trkpt>
      <trkpt lat="48.54794" lon="2.16576">
        <ele>89</ele>
        <time>2017-07-23T08:21:17Z</time>
      </trkpt>
      <trkpt lat="48.54835" lon="2.16604">
        <ele>89</ele>
        <time>2017-07-23T08:21:49Z</time>
      </trkpt>
      <trkpt lat="48.54875" lon="2.16639">
        <ele>88</ele>
        <time>2017-07-23T08:22:23Z</time>
      </trkpt>
      <trkpt lat="48.54918" lon="2.16671">
        <ele>87</ele>
        <time>2017-07-23T08:22:57Z</time>
      </trkpt>
      <trkpt lat="48.54959" lon="2.16699">
        <ele>87</ele>
        <time>2017-07-23T08:23:29Z</time>
      </trkpt>
      <trkpt lat="48.55001" lon="2.1673">
        <ele>86</ele>
        <time>2017-07-23T08:24:03Z</time>
      </trkpt>
      <trkpt lat="48.55043" lon="2.1676">
        <ele>85</ele>
        <time>2017-07-23T08:24:39Z</time>
      </trkpt>
      <trkpt lat="48.55084" lon="2.1679">
        <ele>83</ele>
        <time>2017-07-23T08:25:41Z</time>
      </trkpt>
      <trkpt lat="48.55125" lon="2.16823">
        <ele>81</ele>
        <time>2017-07-23T08:26:16Z</time>
      </trkpt>
      <trkpt lat="48.5516" lon="2.16868">
        <ele>79</ele>
        <time>2017-07-23T08:26:51Z</time>
      </trkpt>
      <trkpt lat="48.55199" lon="2.16905">
        <ele>78</ele>
        <time>2017-07-23T08:27:24Z</time>
      </trkpt>
      <trkpt lat="48.55219" lon="2.16924">
        <ele>78</ele>
        <time>2017-07-23T08:27:41Z</time>
      </trkpt>
      <trkpt lat="48.55263" lon="2.16947">
        <ele>78</ele>
        <time>2017-07-23T08:28:17Z</time>
      </trkpt>
      <trkpt lat="48.55308" lon="2.16958">
        <ele>79</ele>
        <time>2017-07-23T08:28:52Z</time>
      </trkpt>
      <trkpt lat="48.55354" lon="2.16962">
        <ele>79</ele>
        <time>2017-07-23T08:29:27Z</time>
      </trkpt>
      <trkpt lat="48.554" lon="2.16962">
        <ele>79</ele>
        <time>2017-07-23T08:30:01Z</time>
      </trkpt>
      <trkpt lat="48.55446" lon="2.16962">
        <ele>79</ele>
        <time>2017-07-23T08:30:35Z</time>
      </trkpt>
      <trkpt lat="48.55492" lon="2.16964">
        <ele>79</ele>
        <time>2017-07-23T08:31:11Z</time>
      </trkpt>
      <trkpt lat="48.55515" lon="2.16968">
        <ele>79</ele>
        <time>2017-07-23T08:31:29Z</time>
      </trkpt>
      <trkpt lat="48.55556" lon="2.16995">
        <ele>79</ele>
        <time>2017-07-23T08:32:06Z</time>
      </trkpt>
      <trkpt lat="48.55598" lon="2.17024">
        <ele>80</ele>
        <time>2017-07-23T08:32:43Z</time>
      </trkpt>
      <trkpt lat="48.5564" lon="2.17055">
        <ele>81</ele>
        <time>2017-07-23T08:33:19Z</time>
      </trkpt>
      <trkpt lat="48.55681" lon="2.17088">
        <ele>82</ele>
        <time>2017-07-23T08:33:58Z</time>
      </trkpt>
      <trkpt lat="48.55702" lon="2.17103">
        <ele>82</ele>
        <time>2017-07-23T08:34:16Z</time>
      </trkpt>
      <trkpt lat="48.55735" lon="2.1715">
        <ele>81</ele>
        <time>2017-07-23T08:34:55Z</time>
      </trkpt>
      <trkpt lat="48.5577" lon="2.17197">
        <ele>81</ele>
        <time>2017-07-23T08:35:34Z</time>
      </trkpt>
      <trkpt lat="48.55801" lon="2.17249">
        <ele>80</ele>
        <time>2017-07-23T08:36:07Z</time>
      </trkpt>
      <trkpt lat="48.55831" lon="2.17303">
        <ele>78</ele>
        <time>2017-07-23T08:36:45Z</time>
      </trkpt>
      <trkpt lat="48.5586" lon="2.17356">
        <ele>77</ele>
        <time>2017-07-23T08:37:22Z</time>
      </trkpt>
      <trkpt lat="48.5589" lon="2.1741">
        <ele>75</ele>
        <time>2017-07-23T08:37:59Z</time>
      </trkpt>
      <trkpt lat="48.55928" lon="2.17446">
        <ele>75</ele>
        <time>2017-07-23T08:38:34Z</time>
      </trkpt>
      <trkpt lat="48.55949" lon="2.17462">
        <ele>75</ele>
        <time>2017-07-23T08:38:54Z</time>
      </trkpt>
      <trkpt lat="48.55969" lon="2.1748">
        <ele>76</ele>
        <time>2017-07-23T08:40:41Z</time>
      </trkpt>
      <trkpt lat="48.56008" lon="2.17521">
        <ele>75</ele>
        <time>2017-07-23T08:41:16Z</time>
      </trkpt>
      <trkpt lat="48.56048" lon="2.17557">
        <ele>74</ele>
        <time>2017-07-23T08:41:53Z</time>
      </trkpt>
      <trkpt lat="48.5609" lon="2.17588">
        <ele>72</ele>
        <time>2017-07-23T08:42:31Z</time>
      </trkpt>
      <trkpt lat="48.5611" lon="2.17604">
        <ele>71</ele>
        <time>2017-07-23T08:42:51Z</time>
      </trkpt>
      <trkpt lat="48.5612" lon="2.17635">
        <ele>71</ele>
        <time>2017-07-23T08:43:08Z</time>
      </trkpt>
      <trkpt lat="48.56152" lon="2.17687">
        <ele>69</ele>
        <time>2017-07-23T08:44:09Z</time>
      </trkpt>
      <trkpt lat="48.5616" lon="2.17719">
        <ele>67</ele>
        <time>2017-07-23T08:44:28Z</time>
      </trkpt>
      <trkpt lat="48.56135" lon="2.17781">
        <ele>65</ele>
        <time>2017-07-23T08:45:01Z</time>
      </trkpt>
      <trkpt lat="48.56127" lon="2.17813">
        <ele>64</ele>
        <time>2017-07-23T08:45:18Z</time>
      </trkpt>
      <trkpt lat="48.56099" lon="2.1787">
        <ele>63</ele>
        <time>2017-07-23T08:45:51Z</time>
      </trkpt>
      <trkpt lat="48.56085" lon="2.17899">
        <ele>63</ele>
        <time>2017-07-23T08:46:08Z</time>
      </trkpt>
      <trkpt lat="48.56076" lon="2.1793">
        <ele>63</ele>
        <time>2017-07-23T08:46:26Z</time>
      </trkpt>
      <trkpt lat="48.56049" lon="2.17988">
        <ele>64</ele>
        <time>2017-07-23T08:47:00Z</time>
      </trkpt>
      <trkpt lat="48.56026" lon="2.18047">
        <ele>66</ele>
        <time>2017-07-23T08:47:38Z</time>
      </trkpt>
      <trkpt lat="48.56005" lon="2.18109">
        <ele>70</ele>
        <time>2017-07-23T08:48:20Z</time>
      </trkpt>
      <trkpt lat="48.55983" lon="2.18169">
        <ele>74</ele>
        <time>2017-07-23T08:49:06Z</time>
      </trkpt>
      <trkpt lat="48.55957" lon="2.18223">
        <ele>78</ele>
        <time>2017-07-23T08:49:46Z</time>
      </trkpt>
      <trkpt lat="48.55923" lon="2.18269">
        <ele>83</ele>
        <time>2017-07-23T08:50:24Z</time>
      </trkpt>
      <trkpt lat="48.55901" lon="2.18262">
        <ele>85</ele>
        <time>2017-07-23T08:50:44Z</time>
      </trkpt>
      <trkpt lat="48.55895" lon="2.18295">
        <ele>87</ele>
        <time>2017-07-23T08:51:28Z</time>
      </trkpt>
      <trkpt lat="48.55892" lon="2.1833">
        <ele>89</ele>
        <time>2017-07-23T08:52:24Z</time>
      </trkpt>
      <trkpt lat="48.55883" lon="2.18361">
        <ele>93</ele>
        <time>2017-07-23T08:52:48Z</time>
      </trkpt>
      <trkpt lat="48.55879" lon="2.18394">
        <ele>97</ele>
        <time>2017-07-23T08:53:13Z</time>
      </trkpt>
      <trkpt lat="48.55855" lon="2.18459">
        <ele>102</ele>
        <time>2017-07-23T08:54:05Z</time>
      </trkpt>
      <trkpt lat="48.55833" lon="2.1852">
        <ele>107</ele>
        <time>2017-07-23T08:54:38Z</time>
      </trkpt>
      <trkpt lat="48.55819" lon="2.18586">
        <ele>112</ele>
        <time>2017-07-23T08:55:18Z</time>
      </trkpt>
      <trkpt lat="48.55819" lon="2.18621">
        <ele>116</ele>
        <time>2017-07-23T08:55:43Z</time>
      </trkpt>
      <trkpt lat="48.55815" lon="2.18654">
        <ele>120</ele>
        <time>2017-07-23T08:56:10Z</time>
      </trkpt>
      <trkpt lat="48.55804" lon="2.18685">
        <ele>123</ele>
        <time>2017-07-23T08:56:31Z</time>
      </trkpt>
      <trkpt lat="48.55798" lon="2.18719">
        <ele>127</ele>
        <time>2017-07-23T08:56:56Z</time>
      </trkpt>
      <trkpt lat="48.55799" lon="2.18753">
        <ele>133</ele>
        <time>2017-07-23T08:57:17Z</time>
      </trkpt>
      <trkpt lat="48.55803" lon="2.18786">
        <ele>137</ele>
        <time>2017-07-23T08:58:07Z</time>
      </trkpt>
      <trkpt lat="48.55782" lon="2.18808">
        <ele>147</ele>
        <time>2017-07-23T09:09:14Z</time>
      </trkpt>
      <trkpt lat="48.55737" lon="2.18822">
        <ele>147</ele>
        <time>2017-07-23T09:09:53Z</time>
      </trkpt>
      <trkpt lat="48.55727" lon="2.18853">
        <ele>147</ele>
        <time>2017-07-23T09:10:14Z</time>
      </trkpt>
      <trkpt lat="48.55714" lon="2.18919">
        <ele>147</ele>
        <time>2017-07-23T09:10:51Z</time>
      </trkpt>
      <trkpt lat="48.55707" lon="2.18988">
        <ele>147</ele>
        <time>2017-07-23T09:11:36Z</time>
      </trkpt>
      <trkpt lat="48.55701" lon="2.19058">
        <ele>143</ele>
        <time>2017-07-23T09:12:28Z</time>
      </trkpt>
      <trkpt lat="48.55698" lon="2.19091">
        <ele>141</ele>
        <time>2017-07-23T09:12:48Z</time>
      </trkpt>
      <trkpt lat="48.55706" lon="2.1916">
        <ele>137</ele>
        <time>2017-07-23T09:13:26Z</time>
      </trkpt>
      <trkpt lat="48.55708" lon="2.19229">
        <ele>135</ele>
        <time>2017-07-23T09:14:03Z</time>
      </trkpt>
      <trkpt lat="48.55703" lon="2.19263">
        <ele>134</ele>
        <time>2017-07-23T09:14:21Z</time>
      </trkpt>
      <trkpt lat="48.55704" lon="2.19297">
        <ele>132</ele>
        <time>2017-07-23T09:14:42Z</time>
      </trkpt>
      <trkpt lat="48.557" lon="2.19331">
        <ele>131</ele>
        <time>2017-07-23T09:15:04Z</time>
      </trkpt>
      <trkpt lat="48.55682" lon="2.19394">
        <ele>126</ele>
        <time>2017-07-23T09:15:41Z</time>
      </trkpt>
      <trkpt lat="48.55664" lon="2.1946">
        <ele>123</ele>
        <time>2017-07-23T09:16:19Z</time>
      </trkpt>
      <trkpt lat="48.55645" lon="2.19563">
        <ele>118</ele>
        <time>2017-07-23T09:17:07Z</time>
      </trkpt>
      <trkpt lat="48.55639" lon="2.19632">
        <ele>116</ele>
        <time>2017-07-23T09:17:44Z</time>
      </trkpt>
      <trkpt lat="48.55632" lon="2.19701">
        <ele>113</ele>
        <time>2017-07-23T09:18:24Z</time>
      </trkpt>
      <trkpt lat="48.55622" lon="2.19767">
        <ele>110</ele>
        <time>2017-07-23T09:19:04Z</time>
      </trkpt>
      <trkpt lat="48.55609" lon="2.19796">
        <ele>109</ele>
        <time>2017-07-23T09:19:25Z</time>
      </trkpt>
      <trkpt lat="48.55564" lon="2.1978">
        <ele>109</ele>
        <time>2017-07-23T09:19:57Z</time>
      </trkpt>
      <trkpt lat="48.55543" lon="2.19765">
        <ele>109</ele>
        <time>2017-07-23T09:20:14Z</time>
      </trkpt>
      <trkpt lat="48.55497" lon="2.1975">
        <ele>109</ele>
        <time>2017-07-23T09:20:54Z</time>
      </trkpt>
      <trkpt lat="48.55474" lon="2.19754">
        <ele>110</ele>
        <time>2017-07-23T09:21:15Z</time>
      </trkpt>
      <trkpt lat="48.55451" lon="2.19748">
        <ele>110</ele>
        <time>2017-07-23T09:21:40Z</time>
      </trkpt>
      <trkpt lat="48.55406" lon="2.19753">
        <ele>110</ele>
        <time>2017-07-23T09:22:18Z</time>
      </trkpt>
      <trkpt lat="48.55383" lon="2.1975">
        <ele>109</ele>
        <time>2017-07-23T09:22:37Z</time>
      </trkpt>
      <trkpt lat="48.5534" lon="2.19723">
        <ele>109</ele>
        <time>2017-07-23T09:23:09Z</time>
      </trkpt>
      <trkpt lat="48.55319" lon="2.19661">
        <ele>109</ele>
        <time>2017-07-23T09:23:53Z</time>
      </trkpt>
      <trkpt lat="48.55286" lon="2.19612">
        <ele>110</ele>
        <time>2017-07-23T09:24:31Z</time>
      </trkpt>
      <trkpt lat="48.55255" lon="2.19558">
        <ele>111</ele>
        <time>2017-07-23T09:25:19Z</time>
      </trkpt>
      <trkpt lat="48.55238" lon="2.19536">
        <ele>111</ele>
        <time>2017-07-23T09:25:41Z</time>
      </trkpt>
      <trkpt lat="48.5521" lon="2.19482">
        <ele>112</ele>
        <time>2017-07-23T09:26:22Z</time>
      </trkpt>
      <trkpt lat="48.55172" lon="2.19445">
        <ele>114</ele>
        <time>2017-07-23T09:27:00Z</time>
      </trkpt>
      <trkpt lat="48.55152" lon="2.19428">
        <ele>114</ele>
        <time>2017-07-23T09:27:14Z</time>
      </trkpt>
      <trkpt lat="48.55144" lon="2.19396">
        <ele>115</ele>
        <time>2017-07-23T09:27:36Z</time>
      </trkpt>
      <trkpt lat="48.55142" lon="2.19361">
        <ele>115</ele>
        <time>2017-07-23T09:27:57Z</time>
      </trkpt>
      <trkpt lat="48.55144" lon="2.19325">
        <ele>116</ele>
        <time>2017-07-23T09:28:15Z</time>
      </trkpt>
      <trkpt lat="48.55152" lon="2.19292">
        <ele>117</ele>
        <time>2017-07-23T09:28:35Z</time>
      </trkpt>
      <trkpt lat="48.55154" lon="2.19255">
        <ele>118</ele>
        <time>2017-07-23T09:28:54Z</time>
      </trkpt>
      <trkpt lat="48.55163" lon="2.19223">
        <ele>120</ele>
        <time>2017-07-23T09:29:16Z</time>
      </trkpt>
      <trkpt lat="48.5516" lon="2.19154">
        <ele>122</ele>
        <time>2017-07-23T09:29:55Z</time>
      </trkpt>
      <trkpt lat="48.55157" lon="2.19119">
        <ele>125</ele>
        <time>2017-07-23T09:31:47Z</time>
      </trkpt>
      <trkpt lat="48.55136" lon="2.19107">
        <ele>124</ele>
        <time>2017-07-23T09:32:39Z</time>
      </trkpt>
      <trkpt lat="48.55094" lon="2.19079">
        <ele>123</ele>
        <time>2017-07-23T09:33:22Z</time>
      </trkpt>
      <trkpt lat="48.5507" lon="2.19077">
        <ele>123</ele>
        <time>2017-07-23T09:33:40Z</time>
      </trkpt>
      <trkpt lat="48.55049" lon="2.1906">
        <ele>123</ele>
        <time>2017-07-23T09:33:57Z</time>
      </trkpt>
      <trkpt lat="48.55027" lon="2.19055">
        <ele>123</ele>
        <time>2017-07-23T09:34:22Z</time>
      </trkpt>
      <trkpt lat="48.54985" lon="2.19029">
        <ele>124</ele>
        <time>2017-07-23T09:35:14Z</time>
      </trkpt>
      <trkpt lat="48.54961" lon="2.19024">
        <ele>125</ele>
        <time>2017-07-23T09:35:33Z</time>
      </trkpt>
      <trkpt lat="48.54928" lon="2.18978">
        <ele>127</ele>
        <time>2017-07-23T09:36:19Z</time>
      </trkpt>
      <trkpt lat="48.54908" lon="2.18957">
        <ele>128</ele>
        <time>2017-07-23T09:36:52Z</time>
      </trkpt>
      <trkpt lat="48.54885" lon="2.18947">
        <ele>130</ele>
        <time>2017-07-23T09:37:12Z</time>
      </trkpt>
      <trkpt lat="48.54847" lon="2.1891">
        <ele>134</ele>
        <time>2017-07-23T09:38:06Z</time>
      </trkpt>
      <trkpt lat="48.5483" lon="2.18887">
        <ele>137</ele>
        <time>2017-07-23T09:38:28Z</time>
      </trkpt>
      <trkpt lat="48.54815" lon="2.18861">
        <ele>139</ele>
        <time>2017-07-23T09:39:06Z</time>
      </trkpt>
      <trkpt lat="48.54749" lon="2.1883">
        <ele>144</ele>
        <time>2017-07-23T09:39:46Z</time>
      </trkpt>
      <trkpt lat="48.54729" lon="2.18813">
        <ele>145</ele>
        <time>2017-07-23T09:40:06Z</time>
      </trkpt>
      <trkpt lat="48.54706" lon="2.18805">
        <ele>146</ele>
        <time>2017-07-23T09:40:22Z</time>
      </trkpt>
      <trkpt lat="48.54685" lon="2.18789">
        <ele>146</ele>
        <time>2017-07-23T09:40:43Z</time>
      </trkpt>
      <trkpt lat="48.54653" lon="2.1874">
        <ele>146</ele>
        <time>2017-07-23T09:41:19Z</time>
      </trkpt>
      <trkpt lat="48.5464" lon="2.18713">
        <ele>146</ele>
        <time>2017-07-23T09:41:39Z</time>
      </trkpt>
      <trkpt lat="48.54638" lon="2.18679">
        <ele>144</ele>
        <time>2017-07-23T09:42:09Z</time>
      </trkpt>
      <trkpt lat="48.54634" lon="2.18643">
        <ele>142</ele>
        <time>2017-07-23T09:42:43Z</time>
      </trkpt>
      <trkpt lat="48.54631" lon="2.18608">
        <ele>139</ele>
        <time>2017-07-23T09:43:06Z</time>
      </trkpt>
      <trkpt lat="48.54612" lon="2.18545">
        <ele>133</ele>
        <time>2017-07-23T09:43:52Z</time>
      </trkpt>
      <trkpt lat="48.54608" lon="2.1851">
        <ele>129</ele>
        <time>2017-07-23T09:44:13Z</time>
      </trkpt>
      <trkpt lat="48.54598" lon="2.1848">
        <ele>125</ele>
        <time>2017-07-23T09:44:30Z</time>
      </trkpt>
      <trkpt lat="48.54593" lon="2.18445">
        <ele>122</ele>
        <time>2017-07-23T09:44:52Z</time>
      </trkpt>
      <trkpt lat="48.54582" lon="2.18416">
        <ele>118</ele>
        <time>2017-07-23T09:45:12Z</time>
      </trkpt>
      <trkpt lat="48.54557" lon="2.18355">
        <ele>112</ele>
        <time>2017-07-23T09:45:52Z</time>
      </trkpt>
      <trkpt lat="48.54542" lon="2.1833">
        <ele>108</ele>
        <time>2017-07-23T09:46:09Z</time>
      </trkpt>
      <trkpt lat="48.54523" lon="2.1831">
        <ele>105</ele>
        <time>2017-07-23T09:46:42Z</time>
      </trkpt>
      <trkpt lat="48.54502" lon="2.183">
        <ele>102</ele>
        <time>2017-07-23T09:47:01Z</time>
      </trkpt>
      <trkpt lat="48.54485" lon="2.18277">
        <ele>100</ele>
        <time>2017-07-23T09:47:19Z</time>
      </trkpt>
      <trkpt lat="48.54478" lon="2.18243">
        <ele>98</ele>
        <time>2017-07-23T09:47:38Z</time>
      </trkpt>
      <trkpt lat="48.54476" lon="2.18208">
        <ele>96</ele>
        <time>2017-07-23T09:47:56Z</time>
      </trkpt>
      <trkpt lat="48.54465" lon="2.18179">
        <ele>94</ele>
        <time>2017-07-23T09:48:15Z</time>
      </trkpt>
      <trkpt lat="48.54452" lon="2.18109">
        <ele>90</ele>
        <time>2017-07-23T09:48:49Z</time>
      </trkpt>
      <trkpt lat="48.54428" lon="2.18104">
        <ele>84</ele>
        <time>2017-07-23T09:51:44Z</time>
      </trkpt>
      <trkpt lat="48.54406" lon="2.18112">
        <ele>89</ele>
        <time>2017-07-23T09:52:24Z</time>
      </trkpt>
      <trkpt lat="48.54365" lon="2.18079">
        <ele>88</ele>
        <time>2017-07-23T09:53:00Z</time>
      </trkpt>
      <trkpt lat="48.54344" lon="2.18062">
        <ele>88</ele>
        <time>2017-07-23T09:53:22Z</time>
      </trkpt>
      <trkpt lat="48.54309" lon="2.18016">
        <ele>88</ele>
        <time>2017-07-23T09:54:01Z</time>
      </trkpt>
      <trkpt lat="48.54271" lon="2.17974">
        <ele>87</ele>
        <time>2017-07-23T09:54:37Z</time>
      </trkpt>
      <trkpt lat="48.54253" lon="2.17952">
        <ele>87</ele>
        <time>2017-07-23T09:54:53Z</time>
      </trkpt>
      <trkpt lat="48.54211" lon="2.17926">
        <ele>88</ele>
        <time>2017-07-23T09:55:28Z</time>
      </trkpt>
      <trkpt lat="48.5419" lon="2.17915">
        <ele>89</ele>
        <time>2017-07-23T09:55:45Z</time>
      </trkpt>
      <trkpt lat="48.54167" lon="2.17911">
        <ele>89</ele>
        <time>2017-07-23T09:56:17Z</time>
      </trkpt>
      <trkpt lat="48.54148" lon="2.1793">
        <ele>90</ele>
        <time>2017-07-23T09:56:35Z</time>
      </trkpt>
      <trkpt lat="48.54126" lon="2.17922">
        <ele>91</ele>
        <time>2017-07-23T09:56:52Z</time>
      </trkpt>
      <trkpt lat="48.54108" lon="2.17899">
        <ele>92</ele>
        <time>2017-07-23T09:57:12Z</time>
      </trkpt>
      <trkpt lat="48.54114" lon="2.17867">
        <ele>93</ele>
        <time>2017-07-23T09:58:14Z</time>
      </trkpt>
      <trkpt lat="48.541" lon="2.17804">
        <ele>94</ele>
        <time>2017-07-23T10:12:40Z</time>
      </trkpt>
      <trkpt lat="48.54119" lon="2.17825">
        <ele>94</ele>
        <time>2017-07-23T10:13:04Z</time>
      </trkpt>
      <trkpt lat="48.54112" lon="2.1786">
        <ele>95</ele>
        <time>2017-07-23T10:13:16Z</time>
      </trkpt>
      <trkpt lat="48.54109" lon="2.17826">
        <ele>95</ele>
        <time>2017-07-23T10:13:44Z</time>
      </trkpt>
      <trkpt lat="48.54096" lon="2.17797">
        <ele>95</ele>
        <time>2017-07-23T10:14:01Z</time>
      </trkpt>
      <trkpt lat="48.54096" lon="2.17762">
        <ele>95</ele>
        <time>2017-07-23T10:14:29Z</time>
      </trkpt>
      <trkpt lat="48.54091" lon="2.17727">
        <ele>94</ele>
        <time>2017-07-23T10:14:41Z</time>
      </trkpt>
      <trkpt lat="48.54108" lon="2.17704">
        <ele>94</ele>
        <time>2017-07-23T10:14:57Z</time>
      </trkpt>
      <trkpt lat="48.54134" lon="2.17647">
        <ele>94</ele>
        <time>2017-07-23T10:15:34Z</time>
      </trkpt>
      <trkpt lat="48.54156" lon="2.17587">
        <ele>93</ele>
        <time>2017-07-23T10:16:10Z</time>
      </trkpt>
      <trkpt lat="48.54181" lon="2.17527">
        <ele>93</ele>
        <time>2017-07-23T10:16:45Z</time>
      </trkpt>
      <trkpt lat="48.54203" lon="2.17463">
        <ele>93</ele>
        <time>2017-07-23T10:17:22Z</time>
      </trkpt>
      <trkpt lat="48.54227" lon="2.17402">
        <ele>92</ele>
        <time>2017-07-23T10:17:58Z</time>
      </trkpt>
      <trkpt lat="48.54246" lon="2.17382">
        <ele>91</ele>
        <time>2017-07-23T10:18:23Z</time>
      </trkpt>
      <trkpt lat="48.54262" lon="2.17358">
        <ele>90</ele>
        <time>2017-07-23T10:18:40Z</time>
      </trkpt>
      <trkpt lat="48.54268" lon="2.17322">
        <ele>89</ele>
        <time>2017-07-23T10:21:16Z</time>
      </trkpt>
      <trkpt lat="48.54262" lon="2.17346">
        <ele>89</ele>
        <time>2017-07-23T11:34:36Z</time>
      </trkpt>
      <trkpt lat="48.54247" lon="2.17372">
        <ele>90</ele>
        <time>2017-07-23T11:34:56Z</time>
      </trkpt>
      <trkpt lat="48.54229" lon="2.17394">
        <ele>91</ele>
        <time>2017-07-23T11:35:25Z</time>
      </trkpt>
      <trkpt lat="48.54218" lon="2.17423">
        <ele>92</ele>
        <time>2017-07-23T11:35:42Z</time>
      </trkpt>
      <trkpt lat="48.54201" lon="2.17446">
        <ele>92</ele>
        <time>2017-07-23T11:36:03Z</time>
      </trkpt>
      <trkpt lat="48.54195" lon="2.1748">
        <ele>93</ele>
        <time>2017-07-23T11:36:20Z</time>
      </trkpt>
      <trkpt lat="48.54174" lon="2.17541">
        <ele>94</ele>
        <time>2017-07-23T11:36:56Z</time>
      </trkpt>
      <trkpt lat="48.54165" lon="2.17572">
        <ele>94</ele>
        <time>2017-07-23T11:37:15Z</time>
      </trkpt>
      <trkpt lat="48.54148" lon="2.17595">
        <ele>94</ele>
        <time>2017-07-23T11:37:36Z</time>
      </trkpt>
      <trkpt lat="48.5414" lon="2.17627">
        <ele>95</ele>
        <time>2017-07-23T11:37:56Z</time>
      </trkpt>
      <trkpt lat="48.54128" lon="2.17658">
        <ele>95</ele>
        <time>2017-07-23T11:38:12Z</time>
      </trkpt>
      <trkpt lat="48.54108" lon="2.17719">
        <ele>95</ele>
        <time>2017-07-23T11:38:52Z</time>
      </trkpt>
      <trkpt lat="48.5409" lon="2.17745">
        <ele>95</ele>
        <time>2017-07-23T11:39:05Z</time>
      </trkpt>
      <trkpt lat="48.54096" lon="2.17778">
        <ele>95</ele>
        <time>2017-07-23T11:39:24Z</time>
      </trkpt>
      <trkpt lat="48.54108" lon="2.17807">
        <ele>94</ele>
        <time>2017-07-23T11:39:43Z</time>
      </trkpt>
      <trkpt lat="48.54115" lon="2.1784">
        <ele>94</ele>
        <time>2017-07-23T11:40:03Z</time>
      </trkpt>
      <trkpt lat="48.54108" lon="2.17873">
        <ele>94</ele>
        <time>2017-07-23T11:40:24Z</time>
      </trkpt>
      <trkpt lat="48.54109" lon="2.17908">
        <ele>94</ele>
        <time>2017-07-23T11:40:43Z</time>
      </trkpt>
      <trkpt lat="48.54131" lon="2.17922">
        <ele>93</ele>
        <time>2017-07-23T11:41:09Z</time>
      </trkpt>
      <trkpt lat="48.54138" lon="2.17954">
        <ele>93</ele>
        <time>2017-07-23T11:41:28Z</time>
      </trkpt>
      <trkpt lat="48.54138" lon="2.18025">
        <ele>92</ele>
        <time>2017-07-23T11:42:01Z</time>
      </trkpt>
      <trkpt lat="48.54116" lon="2.18086">
        <ele>92</ele>
        <time>2017-07-23T11:42:38Z</time>
      </trkpt>
      <trkpt lat="48.54106" lon="2.18116">
        <ele>92</ele>
        <time>2017-07-23T11:42:57Z</time>
      </trkpt>
      <trkpt lat="48.541" lon="2.18149">
        <ele>92</ele>
        <time>2017-07-23T11:43:16Z</time>
      </trkpt>
      <trkpt lat="48.54103" lon="2.18184">
        <ele>92</ele>
        <time>2017-07-23T11:44:04Z</time>
      </trkpt>
      <trkpt lat="48.54109" lon="2.18252">
        <ele>94</ele>
        <time>2017-07-23T11:44:39Z</time>
      </trkpt>
      <trkpt lat="48.54109" lon="2.18321">
        <ele>97</ele>
        <time>2017-07-23T11:45:21Z</time>
      </trkpt>
      <trkpt lat="48.54113" lon="2.1839">
        <ele>100</ele>
        <time>2017-07-23T11:46:02Z</time>
      </trkpt>
      <trkpt lat="48.5411" lon="2.18425">
        <ele>102</ele>
        <time>2017-07-23T11:46:38Z</time>
      </trkpt>
      <trkpt lat="48.54108" lon="2.1846">
        <ele>104</ele>
        <time>2017-07-23T11:47:04Z</time>
      </trkpt>
      <trkpt lat="48.54116" lon="2.18492">
        <ele>105</ele>
        <time>2017-07-23T11:47:21Z</time>
      </trkpt>
      <trkpt lat="48.54102" lon="2.1852">
        <ele>109</ele>
        <time>2017-07-23T11:48:02Z</time>
      </trkpt>
      <trkpt lat="48.54097" lon="2.18553">
        <ele>113</ele>
        <time>2017-07-23T11:48:28Z</time>
      </trkpt>
      <trkpt lat="48.541" lon="2.18589">
        <ele>117</ele>
        <time>2017-07-23T11:48:54Z</time>
      </trkpt>
      <trkpt lat="48.54095" lon="2.18623">
        <ele>121</ele>
        <time>2017-07-23T11:49:36Z</time>
      </trkpt>
      <trkpt lat="48.54099" lon="2.18692">
        <ele>130</ele>
        <time>2017-07-23T11:50:31Z</time>
      </trkpt>
      <trkpt lat="48.54102" lon="2.1876">
        <ele>137</ele>
        <time>2017-07-23T11:51:21Z</time>
      </trkpt>
      <trkpt lat="48.54097" lon="2.18795">
        <ele>140</ele>
        <time>2017-07-23T11:51:44Z</time>
      </trkpt>
      <trkpt lat="48.54105" lon="2.18829">
        <ele>142</ele>
        <time>2017-07-23T11:52:03Z</time>
      </trkpt>
      <trkpt lat="48.54108" lon="2.18863">
        <ele>144</ele>
        <time>2017-07-23T11:52:26Z</time>
      </trkpt>
      <trkpt lat="48.54125" lon="2.18928">
        <ele>146</ele>
        <time>2017-07-23T11:53:17Z</time>
      </trkpt>
      <trkpt lat="48.54145" lon="2.18993">
        <ele>148</ele>
        <time>2017-07-23T11:53:52Z</time>
      </trkpt>
      <trkpt lat="48.54155" lon="2.19025">
        <ele>148</ele>
        <time>2017-07-23T11:54:12Z</time>
      </trkpt>
      <trkpt lat="48.54174" lon="2.19047">
        <ele>148</ele>
        <time>2017-07-23T11:54:33Z</time>
      </trkpt>
      <trkpt lat="48.542" lon="2.19103">
        <ele>148</ele>
        <time>2017-07-23T11:55:12Z</time>
      </trkpt>
      <trkpt lat="48.54209" lon="2.19134">
        <ele>148</ele>
        <time>2017-07-23T11:55:27Z</time>
      </trkpt>
      <trkpt lat="48.54206" lon="2.19171">
        <ele>148</ele>
        <time>2017-07-23T11:55:52Z</time>
      </trkpt>
      <trkpt lat="48.54212" lon="2.19204">
        <ele>148</ele>
        <time>2017-07-23T11:56:21Z</time>
      </trkpt>
      <trkpt lat="48.54231" lon="2.19225">
        <ele>148</ele>
        <time>2017-07-23T11:56:53Z</time>
      </trkpt>
      <trkpt lat="48.5424" lon="2.1926">
        <ele>148</ele>
        <time>2017-07-23T11:57:21Z</time>
      </trkpt>
      <trkpt lat="48.54258" lon="2.19279">
        <ele>148</ele>
        <time>2017-07-23T11:58:30Z</time>
      </trkpt>
      <trkpt lat="48.54278" lon="2.19344">
        <ele>148</ele>
        <time>2017-07-23T11:59:12Z</time>
      </trkpt>
      <trkpt lat="48.54306" lon="2.19401">
        <ele>147</ele>
        <time>2017-07-23T11:59:52Z</time>
      </trkpt>
      <trkpt lat="48.54341" lon="2.19448">
        <ele>147</ele>
        <time>2017-07-23T12:00:47Z</time>
      </trkpt>
      <trkpt lat="48.54349" lon="2.19481">
        <ele>148</ele>
        <time>2017-07-23T12:01:10Z</time>
      </trkpt>
      <trkpt lat="48.54334" lon="2.19546">
        <ele>147</ele>
        <time>2017-07-23T12:01:53Z</time>
      </trkpt>
      <trkpt lat="48.54334" lon="2.19581">
        <ele>147</ele>
        <time>2017-07-23T12:02:20Z</time>
      </trkpt>
      <trkpt lat="48.54359" lon="2.19642">
        <ele>144</ele>
        <time>2017-07-23T12:03:09Z</time>
      </trkpt>
      <trkpt lat="48.54368" lon="2.19674">
        <ele>143</ele>
        <time>2017-07-23T12:03:26Z</time>
      </trkpt>
      <trkpt lat="48.54364" lon="2.19707">
        <ele>141</ele>
        <time>2017-07-23T12:03:44Z</time>
      </trkpt>
      <trkpt lat="48.54395" lon="2.1976">
        <ele>137</ele>
        <time>2017-07-23T12:04:21Z</time>
      </trkpt>
      <trkpt lat="48.54427" lon="2.1981">
        <ele>131</ele>
        <time>2017-07-23T12:04:59Z</time>
      </trkpt>
      <trkpt lat="48.54465" lon="2.19851">
        <ele>124</ele>
        <time>2017-07-23T12:05:38Z</time>
      </trkpt>
      <trkpt lat="48.54486" lon="2.19864">
        <ele>121</ele>
        <time>2017-07-23T12:05:59Z</time>
      </trkpt>
      <trkpt lat="48.54521" lon="2.19909">
        <ele>115</ele>
        <time>2017-07-23T12:06:30Z</time>
      </trkpt>
      <trkpt lat="48.54559" lon="2.19951">
        <ele>112</ele>
        <time>2017-07-23T12:06:58Z</time>
      </trkpt>
      <trkpt lat="48.54575" lon="2.19978">
        <ele>111</ele>
        <time>2017-07-23T12:07:19Z</time>
      </trkpt>
      <trkpt lat="48.54593" lon="2.19997">
        <ele>110</ele>
        <time>2017-07-23T12:07:38Z</time>
      </trkpt>
      <trkpt lat="48.54636" lon="2.20026">
        <ele>109</ele>
        <time>2017-07-23T12:08:21Z</time>
      </trkpt>
      <trkpt lat="48.54656" lon="2.2004">
        <ele>108</ele>
        <time>2017-07-23T12:08:38Z</time>
      </trkpt>
      <trkpt lat="48.54712" lon="2.201">
        <ele>107</ele>
        <time>2017-07-23T12:09:22Z</time>
      </trkpt>
      <trkpt lat="48.54751" lon="2.20135">
        <ele>105</ele>
        <time>2017-07-23T12:10:00Z</time>
      </trkpt>
      <trkpt lat="48.54792" lon="2.20165">
        <ele>105</ele>
        <time>2017-07-23T12:10:41Z</time>
      </trkpt>
      <trkpt lat="48.54813" lon="2.20151">
        <ele>104</ele>
        <time>2017-07-23T12:11:05Z</time>
      </trkpt>
      <trkpt lat="48.54837" lon="2.20153">
        <ele>104</ele>
        <time>2017-07-23T12:11:18Z</time>
      </trkpt>
      <trkpt lat="48.54882" lon="2.20133">
        <ele>103</ele>
        <time>2017-07-23T12:11:53Z</time>
      </trkpt>
      <trkpt lat="48.54924" lon="2.20106">
        <ele>103</ele>
        <time>2017-07-23T12:13:00Z</time>
      </trkpt>
      <trkpt lat="48.54969" lon="2.20087">
        <ele>103</ele>
        <time>2017-07-23T12:13:39Z</time>
      </trkpt>
      <trkpt lat="48.55014" lon="2.20079">
        <ele>103</ele>
        <time>2017-07-23T12:14:17Z</time>
      </trkpt>
      <trkpt lat="48.55058" lon="2.201">
        <ele>102</ele>
        <time>2017-07-23T12:14:49Z</time>
      </trkpt>
      <trkpt lat="48.55094" lon="2.20141">
        <ele>102</ele>
        <time>2017-07-23T12:15:28Z</time>
      </trkpt>
      <trkpt lat="48.55103" lon="2.20172">
        <ele>101</ele>
        <time>2017-07-23T12:15:46Z</time>
      </trkpt>
      <trkpt lat="48.5513" lon="2.20226">
        <ele>101</ele>
        <time>2017-07-23T12:16:19Z</time>
      </trkpt>
      <trkpt lat="48.55114" lon="2.20201">
        <ele>101</ele>
        <time>2017-07-23T12:17:08Z</time>
      </trkpt>
      <trkpt lat="48.55098" lon="2.2015">
        <ele>102</ele>
        <time>2017-07-23T12:17:36Z</time>
      </trkpt>
      <trkpt lat="48.55061" lon="2.20111">
        <ele>103</ele>
        <time>2017-07-23T12:18:19Z</time>
      </trkpt>
      <trkpt lat="48.55039" lon="2.20096">
        <ele>103</ele>
        <time>2017-07-23T12:18:40Z</time>
      </trkpt>
      <trkpt lat="48.55017" lon="2.20088">
        <ele>104</ele>
        <time>2017-07-23T12:19:02Z</time>
      </trkpt>
      <trkpt lat="48.54994" lon="2.20088">
        <ele>104</ele>
        <time>2017-07-23T12:19:19Z</time>
      </trkpt>
      <trkpt lat="48.54949" lon="2.20103">
        <ele>105</ele>
        <time>2017-07-23T12:19:59Z</time>
      </trkpt>
      <trkpt lat="48.54906" lon="2.20132">
        <ele>105</ele>
        <time>2017-07-23T12:20:35Z</time>
      </trkpt>
      <trkpt lat="48.54861" lon="2.20151">
        <ele>105</ele>
        <time>2017-07-23T12:21:17Z</time>
      </trkpt>
      <trkpt lat="48.54837" lon="2.2016">
        <ele>105</ele>
        <time>2017-07-23T12:21:31Z</time>
      </trkpt>
      <trkpt lat="48.54817" lon="2.20174">
        <ele>105</ele>
        <time>2017-07-23T12:21:48Z</time>
      </trkpt>
      <trkpt lat="48.54794" lon="2.2018">
        <ele>105</ele>
        <time>2017-07-23T12:22:05Z</time>
      </trkpt>
      <trkpt lat="48.54756" lon="2.20219">
        <ele>105</ele>
        <time>2017-07-23T12:22:37Z</time>
      </trkpt>
      <trkpt lat="48.5472" lon="2.20264">
        <ele>104</ele>
        <time>2017-07-23T12:23:13Z</time>
      </trkpt>
      <trkpt lat="48.547" lon="2.20292">
        <ele>104</ele>
        <time>2017-07-23T12:23:42Z</time>
      </trkpt>
      <trkpt lat="48.54691" lon="2.20323">
        <ele>103</ele>
        <time>2017-07-23T12:24:01Z</time>
      </trkpt>
      <trkpt lat="48.54677" lon="2.20356">
        <ele>103</ele>
        <time>2017-07-23T12:24:24Z</time>
      </trkpt>
      <trkpt lat="48.54657" lon="2.20418">
        <ele>102</ele>
        <time>2017-07-23T12:25:01Z</time>
      </trkpt>
      <trkpt lat="48.54623" lon="2.20465">
        <ele>102</ele>
        <time>2017-07-23T12:25:35Z</time>
      </trkpt>
      <trkpt lat="48.5459" lon="2.20514">
        <ele>103</ele>
        <time>2017-07-23T12:26:10Z</time>
      </trkpt>
      <trkpt lat="48.54557" lon="2.20564">
        <ele>102</ele>
        <time>2017-07-23T12:26:43Z</time>
      </trkpt>
      <trkpt lat="48.54522" lon="2.20611">
        <ele>102</ele>
        <time>2017-07-23T12:27:18Z</time>
      </trkpt>
      <trkpt lat="48.54487" lon="2.20661">
        <ele>102</ele>
        <time>2017-07-23T12:27:57Z</time>
      </trkpt>
      <trkpt lat="48.54472" lon="2.20687">
        <ele>102</ele>
        <time>2017-07-23T12:28:19Z</time>
      </trkpt>
      <trkpt lat="48.54454" lon="2.20709">
        <ele>101</ele>
        <time>2017-07-23T12:28:51Z</time>
      </trkpt>
      <trkpt lat="48.54437" lon="2.20733">
        <ele>101</ele>
        <time>2017-07-23T12:29:07Z</time>
      </trkpt>
      <trkpt lat="48.54444" lon="2.20766">
        <ele>101</ele>
        <time>2017-07-23T12:29:29Z</time>
      </trkpt>
      <trkpt lat="48.54484" lon="2.20802">
        <ele>100</ele>
        <time>2017-07-23T12:30:08Z</time>
      </trkpt>
      <trkpt lat="48.54525" lon="2.20835">
        <ele>100</ele>
        <time>2017-07-23T12:30:41Z</time>
      </trkpt>
      <trkpt lat="48.54548" lon="2.20848">
        <ele>101</ele>
        <time>2017-07-23T12:30:58Z</time>
      </trkpt>
      <trkpt lat="48.54589" lon="2.2088">
        <ele>100</ele>
        <time>2017-07-23T12:31:37Z</time>
      </trkpt>
      <trkpt lat="48.5463" lon="2.2091">
        <ele>100</ele>
        <time>2017-07-23T12:32:15Z</time>
      </trkpt>
      <trkpt lat="48.5467" lon="2.20946">
        <ele>99</ele>
        <time>2017-07-23T12:32:48Z</time>
      </trkpt>
      <trkpt lat="48.5471" lon="2.2098">
        <ele>98</ele>
        <time>2017-07-23T12:33:31Z</time>
      </trkpt>
      <trkpt lat="48.54752" lon="2.21011">
        <ele>97</ele>
        <time>2017-07-23T12:34:06Z</time>
      </trkpt>
      <trkpt lat="48.54795" lon="2.21042">
        <ele>96</ele>
        <time>2017-07-23T12:34:39Z</time>
      </trkpt>
      <trkpt lat="48.54836" lon="2.21077">
        <ele>95</ele>
        <time>2017-07-23T12:35:19Z</time>
      </trkpt>
      <trkpt lat="48.5487" lon="2.21099">
        <ele>95</ele>
        <time>2017-07-23T12:35:45Z</time>
      </trkpt>
      <trkpt lat="48.54874" lon="2.21134">
        <ele>94</ele>
        <time>2017-07-23T12:36:09Z</time>
      </trkpt>
      <trkpt lat="48.5485" lon="2.21193">
        <ele>94</ele>
        <time>2017-07-23T12:36:42Z</time>
      </trkpt>
      <trkpt lat="48.5483" lon="2.21256">
        <ele>93</ele>
        <time>2017-07-23T12:37:19Z</time>
      </trkpt>
      <trkpt lat="48.54817" lon="2.21284">
        <ele>93</ele>
        <time>2017-07-23T12:38:29Z</time>
      </trkpt>
      <trkpt lat="48.54797" lon="2.21349">
        <ele>95</ele>
        <time>2017-07-23T12:39:07Z</time>
      </trkpt>
      <trkpt lat="48.54779" lon="2.21412">
        <ele>96</ele>
        <time>2017-07-23T12:39:38Z</time>
      </trkpt>
      <trkpt lat="48.54761" lon="2.21476">
        <ele>96</ele>
        <time>2017-07-23T12:40:14Z</time>
      </trkpt>
      <trkpt lat="48.54747" lon="2.21507">
        <ele>95</ele>
        <time>2017-07-23T12:41:06Z</time>
      </trkpt>
      <trkpt lat="48.54738" lon="2.21541">
        <ele>95</ele>
        <time>2017-07-23T12:41:19Z</time>
      </trkpt>
      <trkpt lat="48.54729" lon="2.21573">
        <ele>95</ele>
        <time>2017-07-23T12:41:39Z</time>
      </trkpt>
      <trkpt lat="48.54749" lon="2.21595">
        <ele>95</ele>
        <time>2017-07-23T12:41:57Z</time>
      </trkpt>
      <trkpt lat="48.54744" lon="2.21634">
        <ele>94</ele>
        <time>2017-07-23T12:42:40Z</time>
      </trkpt>
      <trkpt lat="48.5472" lon="2.21629">
        <ele>94</ele>
        <time>2017-07-23T12:43:09Z</time>
      </trkpt>
      <trkpt lat="48.54709" lon="2.21627">
        <ele>94</ele>
        <time>2017-07-23T12:43:42Z</time>
      </trkpt>
      <trkpt lat="48.54699" lon="2.21659">
        <ele>95</ele>
        <time>2017-07-23T12:45:03Z</time>
      </trkpt>
      <trkpt lat="48.54691" lon="2.21692">
        <ele>95</ele>
        <time>2017-07-23T12:45:19Z</time>
      </trkpt>
      <trkpt lat="48.54668" lon="2.21753">
        <ele>95</ele>
        <time>2017-07-23T12:45:52Z</time>
      </trkpt>
      <trkpt lat="48.54648" lon="2.21816">
        <ele>95</ele>
        <time>2017-07-23T12:46:29Z</time>
      </trkpt>
      <trkpt lat="48.54627" lon="2.21879">
        <ele>96</ele>
        <time>2017-07-23T12:47:08Z</time>
      </trkpt>
      <trkpt lat="48.54608" lon="2.2194">
        <ele>97</ele>
        <time>2017-07-23T12:47:44Z</time>
      </trkpt>
      <trkpt lat="48.54606" lon="2.21974">
        <ele>97</ele>
        <time>2017-07-23T12:48:05Z</time>
      </trkpt>
      <trkpt lat="48.5459" lon="2.21999">
        <ele>97</ele>
        <time>2017-07-23T12:48:19Z</time>
      </trkpt>
      <trkpt lat="48.54575" lon="2.22066">
        <ele>97</ele>
        <time>2017-07-23T12:48:55Z</time>
      </trkpt>
      <trkpt lat="48.54565" lon="2.22099">
        <ele>97</ele>
        <time>2017-07-23T12:49:12Z</time>
      </trkpt>
      <trkpt lat="48.5456" lon="2.22171">
        <ele>97</ele>
        <time>2017-07-23T12:49:47Z</time>
      </trkpt>
      <trkpt lat="48.5456" lon="2.22205">
        <ele>97</ele>
        <time>2017-07-23T12:50:05Z</time>
      </trkpt>
      <trkpt lat="48.54554" lon="2.22272">
        <ele>98</ele>
        <time>2017-07-23T12:50:40Z</time>
      </trkpt>
      <trkpt lat="48.54533" lon="2.22335">
        <ele>98</ele>
        <time>2017-07-23T12:51:17Z</time>
      </trkpt>
      <trkpt lat="48.54513" lon="2.22398">
        <ele>97</ele>
        <time>2017-07-23T12:51:55Z</time>
      </trkpt>
      <trkpt lat="48.54466" lon="2.22402">
        <ele>97</ele>
        <time>2017-07-23T12:52:36Z</time>
      </trkpt>
      <trkpt lat="48.5442" lon="2.224">
        <ele>96</ele>
        <time>2017-07-23T12:53:11Z</time>
      </trkpt>
      <trkpt lat="48.54374" lon="2.22407">
        <ele>95</ele>
        <time>2017-07-23T12:53:50Z</time>
      </trkpt>
      <trkpt lat="48.54328" lon="2.2241">
        <ele>95</ele>
        <time>2017-07-23T12:54:27Z</time>
      </trkpt>
      <trkpt lat="48.54282" lon="2.22415">
        <ele>95</ele>
        <time>2017-07-23T12:55:03Z</time>
      </trkpt>
      <trkpt lat="48.54235" lon="2.22416">
        <ele>96</ele>
        <time>2017-07-23T12:55:43Z</time>
      </trkpt>
      <trkpt lat="48.54189" lon="2.22423">
        <ele>96</ele>
        <time>2017-07-23T12:56:22Z</time>
      </trkpt>
      <trkpt lat="48.54143" lon="2.22426">
        <ele>98</ele>
        <time>2017-07-23T12:57:03Z</time>
      </trkpt>
      <trkpt lat="48.54097" lon="2.22432">
        <ele>99</ele>
        <time>2017-07-23T12:57:44Z</time>
      </trkpt>
      <trkpt lat="48.54049" lon="2.22435">
        <ele>100</ele>
        <time>2017-07-23T12:58:21Z</time>
      </trkpt>
      <trkpt lat="48.54027" lon="2.2243">
        <ele>101</ele>
        <time>2017-07-23T12:58:36Z</time>
      </trkpt>
      <trkpt lat="48.5398" lon="2.22435">
        <ele>102</ele>
        <time>2017-07-23T12:59:13Z</time>
      </trkpt>
      <trkpt lat="48.53934" lon="2.22437">
        <ele>104</ele>
        <time>2017-07-23T12:59:53Z</time>
      </trkpt>
      <trkpt lat="48.5391" lon="2.22441">
        <ele>104</ele>
        <time>2017-07-23T13:00:28Z</time>
      </trkpt>
      <trkpt lat="48.53885" lon="2.22443">
        <ele>105</ele>
        <time>2017-07-23T13:00:56Z</time>
      </trkpt>
      <trkpt lat="48.53862" lon="2.22436">
        <ele>106</ele>
        <time>2017-07-23T13:01:26Z</time>
      </trkpt>
      <trkpt lat="48.5384" lon="2.22435">
        <ele>108</ele>
        <time>2017-07-23T13:01:48Z</time>
      </trkpt>
      <trkpt lat="48.53817" lon="2.22422">
        <ele>110</ele>
        <time>2017-07-23T13:02:05Z</time>
      </trkpt>
      <trkpt lat="48.53771" lon="2.22413">
        <ele>114</ele>
        <time>2017-07-23T13:02:51Z</time>
      </trkpt>
      <trkpt lat="48.53747" lon="2.22399">
        <ele>117</ele>
        <time>2017-07-23T13:03:23Z</time>
      </trkpt>
      <trkpt lat="48.53701" lon="2.22385">
        <ele>125</ele>
        <time>2017-07-23T13:04:20Z</time>
      </trkpt>
      <trkpt lat="48.53656" lon="2.22371">
        <ele>129</ele>
        <time>2017-07-23T13:04:57Z</time>
      </trkpt>
      <trkpt lat="48.53613" lon="2.22345">
        <ele>136</ele>
        <time>2017-07-23T13:05:41Z</time>
      </trkpt>
      <trkpt lat="48.53573" lon="2.22311">
        <ele>140</ele>
        <time>2017-07-23T13:06:28Z</time>
      </trkpt>
      <trkpt lat="48.5359" lon="2.22335">
        <ele>149</ele>
        <time>2017-07-23T13:13:55Z</time>
      </trkpt>
      <trkpt lat="48.53603" lon="2.22364">
        <ele>148</ele>
        <time>2017-07-23T13:14:11Z</time>
      </trkpt>
      <trkpt lat="48.53576" lon="2.2242">
        <ele>147</ele>
        <time>2017-07-23T13:14:47Z</time>
      </trkpt>
      <trkpt lat="48.5355" lon="2.2248">
        <ele>147</ele>
        <time>2017-07-23T13:15:22Z</time>
      </trkpt>
      <trkpt lat="48.53519" lon="2.22532">
        <ele>147</ele>
        <time>2017-07-23T13:15:54Z</time>
      </trkpt>
      <trkpt lat="48.5349" lon="2.22586">
        <ele>147</ele>
        <time>2017-07-23T13:16:28Z</time>
      </trkpt>
      <trkpt lat="48.53463" lon="2.22643">
        <ele>146</ele>
        <time>2017-07-23T13:17:05Z</time>
      </trkpt>
      <trkpt lat="48.53438" lon="2.22701">
        <ele>146</ele>
        <time>2017-07-23T13:17:42Z</time>
      </trkpt>
      <trkpt lat="48.53408" lon="2.22757">
        <ele>146</ele>
        <time>2017-07-23T13:18:16Z</time>
      </trkpt>
      <trkpt lat="48.5338" lon="2.22814">
        <ele>146</ele>
        <time>2017-07-23T13:18:52Z</time>
      </trkpt>
      <trkpt lat="48.53361" lon="2.22832">
        <ele>146</ele>
        <time>2017-07-23T13:19:13Z</time>
      </trkpt>
      <trkpt lat="48.53317" lon="2.22807">
        <ele>145</ele>
        <time>2017-07-23T13:19:45Z</time>
      </trkpt>
      <trkpt lat="48.53275" lon="2.22777">
        <ele>146</ele>
        <time>2017-07-23T13:20:19Z</time>
      </trkpt>
      <trkpt lat="48.53232" lon="2.22756">
        <ele>147</ele>
        <time>2017-07-23T13:20:54Z</time>
      </trkpt>
      <trkpt lat="48.5321" lon="2.22747">
        <ele>147</ele>
        <time>2017-07-23T13:21:11Z</time>
      </trkpt>
      <trkpt lat="48.53172" lon="2.22709">
        <ele>147</ele>
        <time>2017-07-23T13:21:43Z</time>
      </trkpt>
      <trkpt lat="48.53131" lon="2.22676">
        <ele>148</ele>
        <time>2017-07-23T13:22:22Z</time>
      </trkpt>
      <trkpt lat="48.53092" lon="2.22638">
        <ele>148</ele>
        <time>2017-07-23T13:22:55Z</time>
      </trkpt>
      <trkpt lat="48.53054" lon="2.226">
        <ele>149</ele>
        <time>2017-07-23T13:23:29Z</time>
      </trkpt>
      <trkpt lat="48.53033" lon="2.22586">
        <ele>149</ele>
        <time>2017-07-23T13:23:46Z</time>
      </trkpt>
      <trkpt lat="48.5301" lon="2.22589">
        <ele>149</ele>
        <time>2017-07-23T13:24:14Z</time>
      </trkpt>
      <trkpt lat="48.53025" lon="2.22614">
        <ele>149</ele>
        <time>2017-07-23T13:24:46Z</time>
      </trkpt>
      <trkpt lat="48.53038" lon="2.22642">
        <ele>149</ele>
        <time>2017-07-23T13:25:02Z</time>
      </trkpt>
      <trkpt lat="48.5304" lon="2.22678">
        <ele>149</ele>
        <time>2017-07-23T13:25:23Z</time>
      </trkpt>
      <trkpt lat="48.53033" lon="2.22712">
        <ele>148</ele>
        <time>2017-07-23T13:25:41Z</time>
      </trkpt>
      <trkpt lat="48.53022" lon="2.22733">
        <ele>148</ele>
        <time>2017-07-23T13:26:05Z</time>
      </trkpt>
      <trkpt lat="48.53015" lon="2.22765">
        <ele>144</ele>
        <time>2017-07-23T13:27:19Z</time>
      </trkpt>
      <trkpt lat="48.52995" lon="2.22828">
        <ele>143</ele>
        <time>2017-07-23T13:27:54Z</time>
      </trkpt>
      <trkpt lat="48.52978" lon="2.22893">
        <ele>143</ele>
        <time>2017-07-23T13:28:30Z</time>
      </trkpt>
      <trkpt lat="48.52975" lon="2.22928">
        <ele>143</ele>
        <time>2017-07-23T13:28:47Z</time>
      </trkpt>
      <trkpt lat="48.52973" lon="2.22964">
        <ele>143</ele>
        <time>2017-07-23T13:29:07Z</time>
      </trkpt>
      <trkpt lat="48.52959" lon="2.22993">
        <ele>143</ele>
        <time>2017-07-23T13:29:21Z</time>
      </trkpt>
      <trkpt lat="48.52935" lon="2.23051">
        <ele>144</ele>
        <time>2017-07-23T13:29:53Z</time>
      </trkpt>
      <trkpt lat="48.52908" lon="2.23108">
        <ele>143</ele>
        <time>2017-07-23T13:30:25Z</time>
      </trkpt>
      <trkpt lat="48.52883" lon="2.23168">
        <ele>142</ele>
        <time>2017-07-23T13:30:58Z</time>
      </trkpt>
      <trkpt lat="48.52861" lon="2.23231">
        <ele>141</ele>
        <time>2017-07-23T13:31:37Z</time>
      </trkpt>
      <trkpt lat="48.52851" lon="2.23264">
        <ele>141</ele>
        <time>2017-07-23T13:31:53Z</time>
      </trkpt>
      <trkpt lat="48.52846" lon="2.23332">
        <ele>140</ele>
        <time>2017-07-23T13:32:26Z</time>
      </trkpt>
      <trkpt lat="48.52842" lon="2.23365">
        <ele>139</ele>
        <time>2017-07-23T13:32:45Z</time>
      </trkpt>
      <trkpt lat="48.52831" lon="2.23396">
        <ele>139</ele>
        <time>2017-07-23T13:33:05Z</time>
      </trkpt>
      <trkpt lat="48.52808" lon="2.23394">
        <ele>138</ele>
        <time>2017-07-23T13:33:38Z</time>
      </trkpt>
      <trkpt lat="48.52765" lon="2.2337">
        <ele>137</ele>
        <time>2017-07-23T13:34:16Z</time>
      </trkpt>
      <trkpt lat="48.52721" lon="2.23345">
        <ele>136</ele>
        <time>2017-07-23T13:34:49Z</time>
      </trkpt>
      <trkpt lat="48.52698" lon="2.23341">
        <ele>135</ele>
        <time>2017-07-23T13:35:06Z</time>
      </trkpt>
      <trkpt lat="48.5265" lon="2.2336">
        <ele>135</ele>
        <time>2017-07-23T13:35:52Z</time>
      </trkpt>
      <trkpt lat="48.52606" lon="2.23381">
        <ele>136</ele>
        <time>2017-07-23T13:36:31Z</time>
      </trkpt>
      <trkpt lat="48.52584" lon="2.23391">
        <ele>136</ele>
        <time>2017-07-23T13:36:50Z</time>
      </trkpt>
      <trkpt lat="48.52561" lon="2.23386">
        <ele>135</ele>
        <time>2017-07-23T13:37:05Z</time>
      </trkpt>
      <trkpt lat="48.52538" lon="2.23389">
        <ele>134</ele>
        <time>2017-07-23T13:37:22Z</time>
      </trkpt>
      <trkpt lat="48.52515" lon="2.23391">
        <ele>133</ele>
        <time>2017-07-23T13:37:41Z</time>
      </trkpt>
      <trkpt lat="48.52492" lon="2.23397">
        <ele>133</ele>
        <time>2017-07-23T13:37:59Z</time>
      </trkpt>
      <trkpt lat="48.52474" lon="2.23417">
        <ele>132</ele>
        <time>2017-07-23T13:38:17Z</time>
      </trkpt>
      <trkpt lat="48.52464" lon="2.23484">
        <ele>131</ele>
        <time>2017-07-23T13:38:53Z</time>
      </trkpt>
      <trkpt lat="48.5245" lon="2.23552">
        <ele>131</ele>
        <time>2017-07-23T13:39:34Z</time>
      </trkpt>
      <trkpt lat="48.52426" lon="2.23614">
        <ele>130</ele>
        <time>2017-07-23T13:40:13Z</time>
      </trkpt>
      <trkpt lat="48.52413" lon="2.23644">
        <ele>130</ele>
        <time>2017-07-23T13:40:33Z</time>
      </trkpt>
      <trkpt lat="48.52378" lon="2.23688">
        <ele>130</ele>
        <time>2017-07-23T13:41:16Z</time>
      </trkpt>
      <trkpt lat="48.52361" lon="2.2371">
        <ele>130</ele>
        <time>2017-07-23T13:41:54Z</time>
      </trkpt>
      <trkpt lat="48.52336" lon="2.23702">
        <ele>128</ele>
        <time>2017-07-23T13:42:57Z</time>
      </trkpt>
      <trkpt lat="48.52292" lon="2.23672">
        <ele>128</ele>
        <time>2017-07-23T13:43:41Z</time>
      </trkpt>
      <trkpt lat="48.52251" lon="2.23638">
        <ele>128</ele>
        <time>2017-07-23T13:44:17Z</time>
      </trkpt>
      <trkpt lat="48.52228" lon="2.23628">
        <ele>128</ele>
        <time>2017-07-23T13:44:31Z</time>
      </trkpt>
      <trkpt lat="48.52209" lon="2.23609">
        <ele>128</ele>
        <time>2017-07-23T13:44:50Z</time>
      </trkpt>
      <trkpt lat="48.52183" lon="2.23552">
        <ele>128</ele>
        <time>2017-07-23T13:45:35Z</time>
      </trkpt>
      <trkpt lat="48.52164" lon="2.23532">
        <ele>130</ele>
        <time>2017-07-23T13:46:06Z</time>
      </trkpt>
      <trkpt lat="48.52142" lon="2.23509">
        <ele>132</ele>
        <time>2017-07-23T13:46:44Z</time>
      </trkpt>
      <trkpt lat="48.52126" lon="2.23534">
        <ele>141</ele>
        <time>2017-07-23T13:47:58Z</time>
      </trkpt>
      <trkpt lat="48.52115" lon="2.23564">
        <ele>142</ele>
        <time>2017-07-23T13:48:22Z</time>
      </trkpt>
      <trkpt lat="48.52072" lon="2.23604">
        <ele>144</ele>
        <time>2017-07-23T13:49:13Z</time>
      </trkpt>
      <trkpt lat="48.52067" lon="2.23643">
        <ele>144</ele>
        <time>2017-07-23T13:49:44Z</time>
      </trkpt>
      <trkpt lat="48.52083" lon="2.23708">
        <ele>145</ele>
        <time>2017-07-23T13:50:15Z</time>
      </trkpt>
      <trkpt lat="48.52085" lon="2.23744">
        <ele>146</ele>
        <time>2017-07-23T13:50:46Z</time>
      </trkpt>
      <trkpt lat="48.52098" lon="2.23773">
        <ele>146</ele>
        <time>2017-07-23T13:51:00Z</time>
      </trkpt>
      <trkpt lat="48.52116" lon="2.23839">
        <ele>147</ele>
        <time>2017-07-23T13:51:49Z</time>
      </trkpt>
      <trkpt lat="48.52137" lon="2.23901">
        <ele>148</ele>
        <time>2017-07-23T13:52:19Z</time>
      </trkpt>
      <trkpt lat="48.52157" lon="2.23965">
        <ele>148</ele>
        <time>2017-07-23T13:53:00Z</time>
      </trkpt>
      <trkpt lat="48.52178" lon="2.24026">
        <ele>149</ele>
        <time>2017-07-23T13:53:36Z</time>
      </trkpt>
      <trkpt lat="48.52198" lon="2.24089">
        <ele>149</ele>
        <time>2017-07-23T13:54:17Z</time>
      </trkpt>
      <trkpt lat="48.5222" lon="2.2415">
        <ele>150</ele>
        <time>2017-07-23T13:54:56Z</time>
      </trkpt>
      <trkpt lat="48.52242" lon="2.24212">
        <ele>150</ele>
        <time>2017-07-23T13:55:30Z</time>
      </trkpt>
      <trkpt lat="48.52246" lon="2.24247">
        <ele>150</ele>
        <time>2017-07-23T13:55:46Z</time>
      </trkpt>
      <trkpt lat="48.52263" lon="2.24312">
        <ele>150</ele>
        <time>2017-07-23T13:56:34Z</time>
      </trkpt>
      <trkpt lat="48.52288" lon="2.24372">
        <ele>151</ele>
        <time>2017-07-23T13:57:14Z</time>
      </trkpt>
      <trkpt lat="48.52294" lon="2.24407">
        <ele>151</ele>
        <time>2017-07-23T13:57:29Z</time>
      </trkpt>
      <trkpt lat="48.52285" lon="2.2444">
        <ele>151</ele>
        <time>2017-07-23T13:57:45Z</time>
      </trkpt>
      <trkpt lat="48.52263" lon="2.24451">
        <ele>151</ele>
        <time>2017-07-23T13:58:05Z</time>
      </trkpt>
      <trkpt lat="48.52246" lon="2.24475">
        <ele>151</ele>
        <time>2017-07-23T13:58:27Z</time>
      </trkpt>
      <trkpt lat="48.52199" lon="2.24488">
        <ele>151</ele>
        <time>2017-07-23T13:59:06Z</time>
      </trkpt>
      <trkpt lat="48.52178" lon="2.24498">
        <ele>150</ele>
        <time>2017-07-23T13:59:22Z</time>
      </trkpt>
      <trkpt lat="48.5217" lon="2.2453">
        <ele>150</ele>
        <time>2017-07-23T13:59:49Z</time>
      </trkpt>
      <trkpt lat="48.52178" lon="2.24598">
        <ele>149</ele>
        <time>2017-07-23T14:00:26Z</time>
      </trkpt>
      <trkpt lat="48.52194" lon="2.24664">
        <ele>148</ele>
        <time>2017-07-23T14:01:00Z</time>
      </trkpt>
      <trkpt lat="48.52194" lon="2.24701">
        <ele>148</ele>
        <time>2017-07-23T14:01:21Z</time>
      </trkpt>
      <trkpt lat="48.52201" lon="2.24734">
        <ele>148</ele>
        <time>2017-07-23T14:01:37Z</time>
      </trkpt>
      <trkpt lat="48.52197" lon="2.24806">
        <ele>147</ele>
        <time>2017-07-23T14:02:10Z</time>
      </trkpt>
      <trkpt lat="48.52199" lon="2.2484">
        <ele>146</ele>
        <time>2017-07-23T14:02:28Z</time>
      </trkpt>
      <trkpt lat="48.52208" lon="2.24871">
        <ele>146</ele>
        <time>2017-07-23T14:02:48Z</time>
      </trkpt>
      <trkpt lat="48.52211" lon="2.24906">
        <ele>145</ele>
        <time>2017-07-23T14:03:07Z</time>
      </trkpt>
      <trkpt lat="48.52225" lon="2.24979">
        <ele>144</ele>
        <time>2017-07-23T14:03:49Z</time>
      </trkpt>
      <trkpt lat="48.52222" lon="2.25015">
        <ele>144</ele>
        <time>2017-07-23T14:04:05Z</time>
      </trkpt>
      <trkpt lat="48.52241" lon="2.25079">
        <ele>143</ele>
        <time>2017-07-23T14:04:41Z</time>
      </trkpt>
      <trkpt lat="48.52252" lon="2.25111">
        <ele>143</ele>
        <time>2017-07-23T14:04:58Z</time>
      </trkpt>
      <trkpt lat="48.52268" lon="2.25136">
        <ele>142</ele>
        <time>2017-07-23T14:05:18Z</time>
      </trkpt>
      <trkpt lat="48.52271" lon="2.2517">
        <ele>141</ele>
        <time>2017-07-23T14:05:33Z</time>
      </trkpt>
      <trkpt lat="48.52255" lon="2.25236">
        <ele>138</ele>
        <time>2017-07-23T14:06:12Z</time>
      </trkpt>
      <trkpt lat="48.52251" lon="2.25304">
        <ele>134</ele>
        <time>2017-07-23T14:06:49Z</time>
      </trkpt>
      <trkpt lat="48.52218" lon="2.25352">
        <ele>129</ele>
        <time>2017-07-23T14:07:25Z</time>
      </trkpt>
      <trkpt lat="48.52191" lon="2.2541">
        <ele>122</ele>
        <time>2017-07-23T14:07:59Z</time>
      </trkpt>
      <trkpt lat="48.52166" lon="2.25468">
        <ele>115</ele>
        <time>2017-07-23T14:08:31Z</time>
      </trkpt>
      <trkpt lat="48.52125" lon="2.25553">
        <ele>103</ele>
        <time>2017-07-23T14:09:16Z</time>
      </trkpt>
    </trkseg>
  </trk>
</gpx>